createdAt,value
2023-05-21T00:02:17.726Z,15.18
2023-05-21T00:04:45.574Z,14.93
2023-05-21T00:07:12.840Z,16.95
2023-05-21T00:09:39.834Z,14.65
2023-05-21T00:12:08.505Z,16.98
2023-05-21T00:14:35.573Z,17.50
2023-05-21T00:17:02.462Z,15.70
2023-05-21T00:19:29.328Z,15.30
2023-05-21T00:21:57.669Z,13.45
2023-05-21T00:24:24.507Z,15.18
2023-05-21T00:26:51.283Z,16.23
2023-05-21T00:29:18.174Z,15.85
2023-05-21T00:31:45.014Z,16.13
2023-05-21T00:34:14.168Z,16.50
2023-05-21T00:36:40.896Z,16.17
2023-05-21T00:39:08.922Z,17.67
2023-05-21T00:41:36.204Z,16.17
2023-05-21T00:44:03.117Z,18.23
2023-05-21T00:46:30.203Z,15.05
2023-05-21T00:48:58.233Z,17.83
2023-05-21T00:51:25.921Z,16.10
2023-05-21T00:53:54.466Z,16.48
2023-05-21T00:56:22.977Z,17.52
2023-05-21T00:58:54.177Z,16.60
2023-05-21T01:01:21.084Z,16.42
2023-05-21T01:03:48.854Z,17.63
2023-05-21T01:06:16.149Z,15.98
2023-05-21T01:08:44.168Z,14.93
2023-05-21T01:11:11.479Z,16.83
2023-05-21T01:13:41.392Z,15.27
2023-05-21T01:16:09.455Z,15.55
2023-05-21T01:18:37.784Z,15.80
2023-05-21T01:21:07.418Z,15.85
2023-05-21T01:23:34.473Z,17.77
2023-05-21T01:26:01.280Z,17.40
2023-05-21T01:28:29.844Z,17.50
2023-05-21T01:31:01.248Z,15.25
2023-05-21T01:33:47.466Z,17.83
2023-05-21T01:36:26.348Z,17.98
2023-05-21T01:39:15.614Z,17.15
2023-05-21T01:41:45.418Z,16.45
2023-05-21T01:44:14.000Z,17.60
2023-05-21T01:46:40.799Z,16.73
2023-05-21T01:49:10.062Z,18.33
2023-05-21T01:51:37.420Z,17.55
2023-05-21T01:54:04.181Z,18.52
2023-05-21T01:56:33.883Z,15.93
2023-05-21T01:59:00.825Z,19.10
2023-05-21T02:01:30.290Z,16.35
2023-05-21T02:03:58.215Z,17.25
2023-05-21T02:06:25.233Z,17.23
2023-05-21T02:08:52.155Z,18.42
2023-05-21T02:11:18.957Z,17.58
2023-05-21T02:13:46.180Z,19.88
2023-05-21T02:16:14.766Z,17.80
2023-05-21T02:18:44.485Z,18.02
2023-05-21T02:21:11.570Z,19.52
2023-05-21T02:23:38.576Z,18.58
2023-05-21T02:26:05.603Z,21.13
2023-05-21T02:28:32.834Z,17.75
2023-05-21T02:30:59.737Z,17.10
2023-05-21T02:33:26.689Z,19.33
2023-05-21T02:35:53.603Z,19.73
2023-05-21T02:38:23.112Z,19.58
2023-05-21T02:40:53.630Z,20.08
2023-05-21T02:43:20.780Z,19.83
2023-05-21T02:45:47.947Z,18.95
2023-05-21T02:48:15.094Z,19.13
2023-05-21T02:50:41.875Z,19.80
2023-05-21T02:53:08.653Z,19.35
2023-05-21T02:55:35.834Z,22.52
2023-05-21T02:58:02.883Z,19.95
2023-05-21T03:00:29.624Z,21.33
2023-05-21T03:02:56.765Z,20.38
2023-05-21T03:05:24.450Z,19.13
2023-05-21T03:07:51.495Z,21.95
2023-05-21T03:10:18.395Z,21.65
2023-05-21T03:12:45.660Z,22.45
2023-05-21T03:15:14.900Z,21.40
2023-05-21T03:17:44.819Z,20.83
2023-05-21T03:20:16.506Z,21.90
2023-05-21T03:22:44.838Z,21.65
2023-05-21T03:25:12.697Z,23.80
2023-05-21T03:27:40.037Z,25.38
2023-05-21T03:30:07.463Z,22.45
2023-05-21T03:32:37.812Z,21.55
2023-05-21T03:35:05.315Z,21.98
2023-05-21T03:37:32.130Z,23.05
2023-05-21T03:39:58.887Z,22.88
2023-05-21T03:42:25.767Z,24.60
2023-05-21T03:44:52.569Z,23.00
2023-05-21T03:47:19.348Z,21.73
2023-05-21T03:49:46.260Z,26.52
2023-05-21T03:52:13.071Z,24.27
2023-05-21T03:54:39.867Z,24.08
2023-05-21T03:57:06.814Z,26.35
2023-05-21T03:59:33.608Z,25.25
2023-05-21T04:02:00.480Z,25.65
2023-05-21T04:04:29.326Z,23.13
2023-05-21T04:06:56.239Z,22.73
2023-05-21T04:09:23.153Z,23.23
2023-05-21T04:11:49.935Z,23.88
2023-05-21T04:14:16.697Z,18.60
2023-05-21T04:16:44.250Z,19.52
2023-05-21T04:19:11.061Z,20.98
2023-05-21T04:21:37.855Z,20.05
2023-05-21T04:24:04.640Z,19.98
2023-05-21T04:26:34.020Z,19.85
2023-05-21T04:29:03.825Z,20.98
2023-05-21T04:31:33.484Z,21.15
2023-05-21T04:34:00.327Z,23.17
2023-05-21T04:36:29.119Z,22.35
2023-05-21T04:38:56.079Z,22.92
2023-05-21T04:41:22.918Z,24.42
2023-05-21T04:43:49.696Z,25.30
2023-05-21T04:46:16.698Z,23.77
2023-05-21T04:48:45.149Z,23.77
2023-05-21T04:51:11.968Z,23.42
2023-05-21T04:53:38.913Z,22.00
2023-05-21T04:56:07.331Z,22.00
2023-05-21T04:58:34.304Z,22.17
2023-05-21T05:01:03.345Z,21.55
2023-05-21T05:03:30.361Z,22.20
2023-05-21T05:05:57.405Z,20.63
2023-05-21T05:08:24.222Z,20.55
2023-05-21T05:10:50.986Z,21.83
2023-05-21T05:13:17.750Z,20.65
2023-05-21T05:15:44.489Z,19.13
2023-05-21T05:18:12.101Z,21.63
2023-05-21T05:20:38.970Z,23.13
2023-05-21T05:23:05.888Z,28.70
2023-05-21T05:25:33.072Z,20.25
2023-05-21T05:27:59.954Z,21.67
2023-05-21T05:30:26.863Z,19.88
2023-05-21T05:32:53.930Z,22.35
2023-05-21T05:35:20.804Z,20.92
2023-05-21T05:37:47.626Z,21.90
2023-05-21T05:40:14.650Z,22.98
2023-05-21T05:42:41.496Z,20.27
2023-05-21T05:45:08.813Z,21.73
2023-05-21T05:47:35.752Z,19.95
2023-05-21T05:50:02.625Z,21.38
2023-05-21T05:52:30.795Z,21.70
2023-05-21T05:54:57.572Z,19.90
2023-05-21T05:57:24.301Z,19.05
2023-05-21T05:59:51.043Z,17.95
2023-05-21T06:02:17.956Z,20.65
2023-05-21T06:04:44.840Z,20.55
2023-05-21T06:07:11.630Z,21.92
2023-05-21T06:09:39.000Z,18.80
2023-05-21T06:12:07.146Z,16.88
2023-05-21T06:14:33.951Z,18.80
2023-05-21T06:17:00.740Z,18.92
2023-05-21T06:19:27.613Z,17.80
2023-05-21T06:21:54.429Z,18.33
2023-05-21T06:24:21.310Z,18.23
2023-05-21T06:26:48.049Z,18.80
2023-05-21T06:29:15.589Z,16.55
2023-05-21T06:31:42.750Z,15.80
2023-05-21T06:34:10.735Z,17.20
2023-05-21T06:36:37.878Z,15.90
2023-05-21T06:39:04.647Z,16.15
2023-05-21T06:41:31.491Z,17.67
2023-05-21T06:43:58.260Z,17.90
2023-05-21T06:46:25.216Z,16.63
2023-05-21T06:48:52.115Z,16.27
2023-05-21T06:51:18.904Z,15.57
2023-05-21T06:53:45.717Z,17.17
2023-05-21T06:56:13.111Z,20.63
2023-05-21T06:58:42.012Z,18.58
2023-05-21T07:01:08.862Z,18.67
2023-05-21T07:03:38.659Z,19.50
2023-05-21T07:06:05.571Z,16.15
2023-05-21T07:08:32.351Z,15.88
2023-05-21T07:10:59.230Z,18.60
2023-05-21T07:13:26.101Z,14.05
2023-05-21T07:15:52.849Z,15.65
2023-05-21T07:18:19.718Z,16.33
2023-05-21T07:20:46.461Z,16.75
2023-05-21T07:23:13.218Z,14.18
2023-05-21T07:25:40.039Z,15.15
2023-05-21T07:28:06.943Z,15.32
2023-05-21T07:30:33.900Z,17.40
2023-05-21T07:33:00.972Z,19.27
2023-05-21T07:35:27.750Z,18.05
2023-05-21T07:37:54.691Z,20.98
2023-05-21T07:40:21.606Z,18.90
2023-05-21T07:42:48.360Z,24.63
2023-05-21T07:45:15.276Z,17.60
2023-05-21T07:47:42.807Z,16.33
2023-05-21T07:50:10.401Z,17.35
2023-05-21T07:52:37.240Z,15.80
2023-05-21T07:55:04.441Z,15.68
2023-05-21T07:57:31.361Z,19.02
2023-05-21T07:59:58.560Z,18.38
2023-05-21T08:02:25.686Z,14.43
2023-05-21T08:04:52.689Z,15.05
2023-05-21T08:07:21.535Z,18.42
2023-05-21T08:09:48.378Z,13.80
2023-05-21T08:12:16.119Z,12.93
2023-05-21T08:14:43.074Z,17.50
2023-05-21T08:17:11.399Z,18.15
2023-05-21T08:19:38.519Z,14.15
2023-05-21T08:22:06.700Z,10.98
2023-05-21T08:24:33.656Z,11.38
2023-05-21T08:27:00.547Z,10.35
2023-05-21T08:29:27.435Z,9.50
2023-05-21T08:31:54.425Z,12.10
2023-05-21T08:34:21.345Z,9.63
2023-05-21T08:36:49.956Z,11.38
2023-05-21T08:39:16.822Z,11.90
2023-05-21T08:41:49.621Z,10.23
2023-05-21T08:44:20.533Z,12.27
2023-05-21T08:46:50.141Z,9.65
2023-05-21T08:49:18.793Z,9.18
2023-05-21T08:51:47.031Z,10.15
2023-05-21T08:54:14.209Z,10.68
2023-05-21T08:56:47.099Z,10.30
2023-05-21T08:59:15.364Z,10.60
2023-05-21T09:01:43.623Z,11.02
2023-05-21T09:06:46.960Z,11.82
2023-05-21T09:09:42.196Z,10.25
2023-05-21T09:12:09.056Z,9.88
2023-05-21T09:14:37.405Z,13.38
2023-05-21T09:17:04.394Z,10.68
2023-05-21T09:19:32.319Z,9.02
2023-05-21T09:22:05.990Z,10.40
2023-05-21T09:24:35.708Z,10.88
2023-05-21T09:27:06.469Z,9.63
2023-05-21T09:29:34.573Z,10.48
2023-05-21T09:32:07.026Z,10.35
2023-05-21T09:34:37.253Z,9.73
2023-05-21T09:37:06.555Z,9.02
2023-05-21T09:39:36.074Z,9.00
2023-05-21T09:42:03.011Z,10.02
2023-05-21T09:44:29.798Z,7.28
2023-05-21T09:46:59.689Z,8.35
2023-05-21T09:49:26.798Z,9.48
2023-05-21T09:51:59.552Z,6.53
2023-05-21T09:54:32.270Z,9.80
2023-05-21T09:57:01.748Z,8.60
2023-05-21T09:59:39.330Z,9.15
2023-05-21T10:02:23.562Z,11.23
2023-05-21T10:04:52.984Z,8.25
2023-05-21T10:07:25.972Z,12.73
2023-05-21T10:09:58.316Z,9.55
2023-05-21T10:12:26.091Z,14.60
2023-05-21T10:15:01.364Z,13.40
2023-05-21T10:17:31.198Z,14.00
2023-05-21T10:19:59.811Z,13.50
2023-05-21T10:22:27.525Z,13.70
2023-05-21T10:24:54.801Z,11.30
2023-05-21T10:27:23.047Z,12.65
2023-05-21T10:29:50.826Z,15.55
2023-05-21T10:32:18.020Z,11.02
2023-05-21T10:34:46.992Z,10.90
2023-05-21T10:37:14.345Z,13.00
2023-05-21T10:39:43.442Z,12.38
2023-05-21T10:42:20.274Z,13.52
2023-05-21T10:45:00.600Z,14.50
2023-05-21T10:48:12.753Z,16.23
2023-05-21T10:51:05.535Z,12.25
2023-05-21T10:53:51.253Z,14.50
2023-05-21T10:56:24.918Z,13.82
2023-05-21T10:59:22.340Z,12.48
2023-05-21T11:01:53.050Z,12.90
2023-05-21T11:04:26.422Z,12.13
2023-05-21T11:06:53.357Z,9.65
2023-05-21T11:09:20.474Z,16.10
2023-05-21T11:11:51.864Z,13.77
2023-05-21T11:14:42.985Z,15.20
2023-05-21T11:17:09.769Z,15.52
2023-05-21T11:19:41.593Z,11.55
2023-05-21T11:24:41.403Z,13.55
2023-05-21T11:27:08.767Z,13.07
2023-05-21T11:29:44.514Z,7.30
2023-05-21T11:32:13.575Z,7.05
2023-05-21T11:34:47.953Z,8.50
2023-05-21T11:37:18.233Z,7.45
2023-05-21T11:39:45.859Z,8.70
2023-05-21T11:42:13.207Z,9.07
2023-05-21T11:44:48.086Z,7.63
2023-05-21T11:47:17.877Z,8.82
2023-05-21T11:49:46.014Z,7.03
2023-05-21T11:52:14.449Z,7.90
2023-05-21T11:54:46.544Z,10.00
2023-05-21T11:57:17.810Z,9.82
2023-05-21T11:59:54.258Z,10.68
2023-05-21T12:02:22.466Z,10.30
2023-05-21T12:04:50.976Z,11.93
2023-05-21T12:07:19.365Z,9.60
2023-05-21T12:09:48.292Z,9.13
2023-05-21T12:12:17.021Z,11.35
2023-05-21T12:14:46.314Z,11.35
2023-05-21T12:17:15.285Z,9.63
2023-05-21T12:19:42.891Z,21.50
2023-05-21T12:22:10.674Z,11.00
2023-05-21T12:24:38.147Z,21.00
2023-05-21T12:27:10.763Z,12.13
2023-05-21T12:29:38.822Z,9.93
2023-05-21T12:32:08.838Z,11.23
2023-05-21T12:34:54.697Z,10.05
2023-05-21T12:37:22.759Z,10.80
2023-05-21T12:39:51.663Z,9.45
2023-05-21T12:42:35.378Z,9.23
2023-05-21T12:45:08.717Z,8.23
2023-05-21T12:47:35.928Z,8.73
2023-05-21T12:50:11.866Z,11.57
2023-05-21T12:52:40.518Z,11.82
2023-05-21T12:55:09.564Z,12.65
2023-05-21T12:57:38.973Z,11.50
2023-05-21T13:00:07.344Z,13.82
2023-05-21T13:02:36.266Z,13.95
2023-05-21T13:05:07.809Z,13.25
2023-05-21T13:07:39.439Z,11.30
2023-05-21T13:10:07.056Z,12.38
2023-05-21T13:12:34.524Z,13.60
2023-05-21T13:15:04.456Z,10.73
2023-05-21T13:17:34.606Z,11.15
2023-05-21T13:20:12.517Z,10.75
2023-05-21T13:22:45.176Z,8.25
2023-05-21T13:25:15.592Z,11.35
2023-05-21T13:27:43.601Z,14.80
2023-05-21T13:30:14.338Z,11.77
2023-05-21T13:32:42.419Z,13.05
2023-05-21T13:35:13.131Z,13.98
2023-05-21T13:37:40.935Z,15.07
2023-05-21T13:40:11.308Z,13.23
2023-05-21T13:42:38.912Z,12.48
2023-05-21T13:45:07.424Z,16.25
2023-05-21T13:47:37.485Z,14.10
2023-05-21T13:50:06.742Z,13.80
2023-05-21T13:52:33.622Z,12.50
2023-05-21T13:55:00.419Z,12.65
2023-05-21T13:57:30.667Z,12.85
2023-05-21T13:59:58.420Z,13.38
2023-05-21T14:02:25.703Z,11.07
2023-05-21T14:04:52.709Z,9.82
2023-05-21T14:07:19.488Z,10.75
2023-05-21T14:09:47.497Z,13.90
2023-05-21T14:12:14.383Z,13.40
2023-05-21T14:14:42.136Z,11.05
2023-05-21T14:17:09.051Z,10.75
2023-05-21T14:19:36.116Z,12.93
2023-05-21T14:22:02.998Z,12.98
2023-05-21T14:24:29.799Z,11.45
2023-05-21T14:26:56.566Z,11.18
2023-05-21T14:29:23.388Z,15.00
2023-05-21T14:31:50.224Z,12.65
2023-05-21T14:34:17.093Z,10.27
2023-05-21T14:36:43.933Z,12.75
2023-05-21T14:39:10.849Z,11.18
2023-05-21T14:41:39.764Z,9.57
2023-05-21T14:44:06.843Z,9.77
2023-05-21T14:46:33.935Z,9.25
2023-05-21T14:49:01.066Z,9.15
2023-05-21T14:51:28.175Z,7.45
2023-05-21T14:53:57.300Z,5.78
2023-05-21T14:56:27.258Z,8.00
2023-05-21T14:58:54.337Z,10.05
2023-05-21T15:01:21.544Z,9.57
2023-05-21T15:03:48.540Z,6.28
2023-05-21T15:06:15.402Z,9.52
2023-05-21T15:08:42.421Z,10.70
2023-05-21T15:11:10.044Z,9.18
2023-05-21T15:13:36.970Z,13.18
2023-05-21T15:16:04.137Z,9.68
2023-05-21T15:18:31.067Z,11.35
2023-05-21T15:20:58.375Z,8.00
2023-05-21T15:23:25.564Z,7.65
2023-05-21T15:25:52.378Z,8.48
2023-05-21T15:28:19.895Z,10.10
2023-05-21T15:30:46.745Z,8.63
2023-05-21T15:33:13.542Z,10.80
2023-05-21T15:35:41.098Z,10.15
2023-05-21T15:38:08.302Z,10.75
2023-05-21T15:40:35.086Z,10.15
2023-05-21T15:43:01.955Z,11.00
2023-05-21T15:45:28.851Z,10.48
2023-05-21T15:47:55.908Z,8.50
2023-05-21T15:50:22.701Z,10.63
2023-05-21T15:52:51.038Z,8.02
2023-05-21T15:55:20.105Z,13.10
2023-05-21T15:57:47.001Z,8.88
2023-05-21T16:00:15.245Z,7.78
2023-05-21T16:02:42.172Z,12.48
2023-05-21T16:05:09.576Z,13.27
2023-05-21T16:07:38.163Z,7.88
2023-05-21T16:10:06.447Z,12.50
2023-05-21T16:12:33.260Z,7.60
2023-05-21T16:15:00.079Z,13.18
2023-05-21T16:17:26.914Z,8.43
2023-05-21T16:19:53.746Z,7.70
2023-05-21T16:22:20.837Z,8.75
2023-05-21T16:24:48.042Z,6.35
2023-05-21T16:27:14.849Z,9.07
2023-05-21T16:29:41.905Z,13.38
2023-05-21T16:32:09.800Z,6.70
2023-05-21T16:34:36.727Z,7.22
2023-05-21T16:37:03.683Z,7.22
2023-05-21T16:39:30.607Z,7.22
2023-05-21T16:41:59.679Z,10.23
2023-05-21T16:44:27.350Z,13.82
2023-05-21T16:46:54.398Z,8.38
2023-05-21T16:49:21.230Z,7.75
2023-05-21T16:51:48.115Z,9.10
2023-05-21T16:54:14.956Z,9.05
2023-05-21T16:56:41.842Z,8.50
2023-05-21T16:59:08.675Z,10.10
2023-05-21T17:01:35.557Z,13.48
2023-05-21T17:04:02.785Z,8.43
2023-05-21T17:06:29.683Z,11.98
2023-05-21T17:08:56.629Z,10.75
2023-05-21T17:11:23.433Z,9.38
2023-05-21T17:13:50.293Z,14.10
2023-05-21T17:16:19.799Z,9.40
2023-05-21T17:18:46.692Z,13.80
2023-05-21T17:21:13.796Z,9.73
2023-05-21T17:23:42.861Z,14.00
2023-05-21T17:26:12.694Z,11.10
2023-05-21T17:28:39.503Z,13.02
2023-05-21T17:31:08.271Z,14.10
2023-05-21T17:33:35.120Z,22.15
2023-05-21T17:36:03.153Z,14.30
2023-05-21T17:38:30.040Z,15.52
2023-05-21T17:40:59.055Z,18.23
2023-05-21T17:43:27.646Z,15.27
2023-05-21T17:45:54.652Z,15.57
2023-05-21T17:48:21.572Z,19.23
2023-05-21T17:50:48.513Z,15.27
2023-05-21T17:53:15.959Z,14.05
2023-05-21T17:55:42.722Z,15.23
2023-05-21T17:58:10.131Z,14.90
2023-05-21T18:00:37.120Z,16.13
2023-05-21T18:03:04.658Z,13.10
2023-05-21T18:05:31.568Z,14.30
2023-05-21T18:08:01.240Z,15.63
2023-05-21T18:10:28.292Z,12.52
2023-05-21T18:12:55.054Z,15.70
2023-05-21T18:15:21.907Z,13.48
2023-05-21T18:17:48.794Z,12.90
2023-05-21T18:20:15.829Z,17.73
2023-05-21T18:22:42.664Z,16.25
2023-05-21T18:25:09.787Z,15.65
2023-05-21T18:27:36.934Z,12.60
2023-05-21T18:30:06.383Z,19.00
2023-05-21T18:32:34.558Z,20.88
2023-05-21T18:35:01.397Z,15.23
2023-05-21T18:37:29.275Z,19.08
2023-05-21T18:39:56.085Z,15.13
2023-05-21T18:42:22.868Z,14.88
2023-05-21T18:44:52.670Z,16.52
2023-05-21T18:47:19.577Z,16.10
2023-05-21T18:49:46.396Z,19.02
2023-05-21T18:52:13.748Z,19.85
2023-05-21T18:54:40.623Z,19.00
2023-05-21T18:57:07.385Z,21.42
2023-05-21T18:59:34.154Z,18.83
2023-05-21T19:02:01.154Z,25.50
2023-05-21T19:04:28.708Z,23.33
2023-05-21T19:06:55.972Z,26.60
2023-05-21T19:09:22.780Z,26.80
2023-05-21T19:11:50.705Z,23.70
2023-05-21T19:14:17.559Z,21.50
2023-05-21T19:16:45.855Z,23.02
2023-05-21T19:19:12.804Z,20.80
2023-05-21T19:21:40.090Z,26.63
2023-05-21T19:24:07.325Z,18.52
2023-05-21T19:26:37.339Z,21.48
2023-05-21T19:29:04.175Z,21.00
2023-05-21T19:31:31.014Z,17.27
2023-05-21T19:33:57.837Z,20.92
2023-05-21T19:36:24.755Z,18.90
2023-05-21T19:38:51.689Z,22.10
2023-05-21T19:41:19.974Z,19.58
2023-05-21T19:43:46.813Z,17.58
2023-05-21T19:46:17.221Z,17.85
2023-05-21T19:48:46.154Z,18.45
2023-05-21T19:51:13.482Z,16.95
2023-05-21T19:53:40.346Z,23.00
2023-05-21T19:56:07.639Z,18.98
2023-05-21T19:58:34.418Z,19.10
2023-05-21T20:01:01.226Z,23.35
2023-05-21T20:03:32.105Z,20.10
2023-05-21T20:05:59.117Z,20.73
2023-05-21T20:08:26.045Z,24.38
2023-05-21T20:10:53.092Z,21.48
2023-05-21T20:13:21.694Z,16.75
2023-05-21T20:15:49.899Z,18.67
2023-05-21T20:18:17.191Z,20.45
2023-05-21T20:20:44.087Z,23.50
2023-05-21T20:23:10.973Z,23.05
2023-05-21T20:25:37.776Z,22.92
2023-05-21T20:28:05.477Z,21.08
2023-05-21T20:30:34.025Z,20.90
2023-05-21T20:33:02.216Z,21.35
2023-05-21T20:35:29.528Z,20.35
2023-05-21T20:37:56.323Z,19.70
2023-05-21T20:40:23.119Z,19.67
2023-05-21T20:42:53.579Z,21.77
2023-05-21T20:45:21.991Z,19.95
2023-05-21T20:47:50.107Z,21.88
2023-05-21T20:50:25.882Z,20.20
2023-05-21T20:52:52.699Z,20.70
2023-05-21T20:55:20.872Z,18.92
2023-05-21T20:57:47.667Z,20.77
2023-05-21T21:00:16.209Z,19.70
2023-05-21T21:02:43.768Z,16.55
2023-05-21T21:05:11.463Z,15.93
2023-05-21T21:07:38.481Z,17.23
2023-05-21T21:10:05.971Z,20.02
2023-05-21T21:12:32.804Z,17.77
2023-05-21T21:14:59.598Z,17.10
2023-05-21T21:17:26.400Z,18.05
2023-05-21T21:19:53.588Z,16.10
2023-05-21T21:22:21.061Z,18.55
2023-05-21T21:24:48.006Z,16.17
2023-05-21T21:27:17.588Z,15.77
2023-05-21T21:29:45.747Z,18.92
2023-05-21T21:32:12.759Z,15.75
2023-05-21T21:34:39.580Z,17.13
2023-05-21T21:37:06.464Z,14.10
2023-05-21T21:39:33.728Z,16.23
2023-05-21T21:42:00.847Z,14.45
2023-05-21T21:44:27.835Z,14.73
2023-05-21T21:46:54.604Z,17.23
2023-05-21T21:49:21.434Z,15.32
2023-05-21T21:51:48.470Z,15.55
2023-05-21T21:54:15.253Z,13.57
2023-05-21T21:56:42.124Z,15.10
2023-05-21T21:59:08.925Z,12.05
2023-05-21T22:01:36.060Z,18.77
2023-05-21T22:04:02.980Z,13.43
2023-05-21T22:06:29.992Z,16.20
2023-05-21T22:08:56.811Z,12.95
2023-05-21T22:11:23.698Z,15.95
2023-05-21T22:13:50.507Z,17.05
2023-05-21T22:16:17.310Z,15.57
2023-05-21T22:18:44.218Z,16.08
2023-05-21T22:21:14.299Z,15.57
2023-05-21T22:23:41.543Z,16.30
2023-05-21T22:26:09.666Z,18.75
2023-05-21T22:28:36.496Z,15.35
2023-05-21T22:31:03.490Z,14.23
2023-05-21T22:33:30.540Z,18.73
2023-05-21T22:35:58.263Z,13.63
2023-05-21T22:38:25.699Z,15.35
2023-05-21T22:40:52.536Z,17.00
2023-05-21T22:43:19.429Z,14.52
2023-05-21T22:45:46.447Z,12.40
2023-05-21T22:48:14.413Z,16.15
2023-05-21T22:50:41.572Z,14.30
2023-05-21T22:53:08.488Z,16.23
2023-05-21T22:55:35.375Z,15.23
2023-05-21T22:58:02.188Z,15.77
2023-05-21T23:00:29.224Z,14.90
2023-05-21T23:02:56.322Z,14.98
2023-05-21T23:05:23.326Z,14.15
2023-05-21T23:07:50.143Z,15.43
2023-05-21T23:10:17.028Z,17.40
2023-05-21T23:12:43.848Z,20.67
2023-05-21T23:15:11.079Z,17.52
2023-05-21T23:17:38.315Z,18.40
2023-05-21T23:20:07.262Z,17.13
2023-05-21T23:22:34.606Z,15.18
2023-05-21T23:25:01.808Z,16.80
2023-05-21T23:27:30.557Z,14.85
2023-05-21T23:29:57.288Z,20.20
2023-05-21T23:32:24.425Z,14.95
2023-05-21T23:34:51.260Z,14.80
2023-05-21T23:37:18.871Z,15.48
2023-05-21T23:39:49.581Z,16.30
2023-05-21T23:42:17.424Z,15.63
2023-05-21T23:44:44.529Z,15.18
2023-05-21T23:47:11.403Z,16.60
2023-05-21T23:49:38.993Z,13.57
2023-05-21T23:52:06.267Z,16.48
2023-05-21T23:54:33.209Z,17.33
2023-05-21T23:57:00.079Z,14.85
2023-05-21T23:59:26.869Z,16.83
